Airfield :
LOGIN :

Register | Disclaimer

   EN    FR    IT 

 










Legend :    VFR   Marginal VFR   IFR   Intensive IFR   Very Intensive IFR
Visi :
Ceiling :
>= 8 km
>= 3000ft
5 to 8 km
1000 to 3000 ft
1500m to 5 km
500 to 1000 ft
800 to 1500m
200 to 500 ft
< 800m
< 200 ft
Symbols :   Thunderstorms  Fog  Heavy snow  Heavy precipitations  Wind > 20 kt
SIGMETs :     Misc.  Thunderstorms  Icing  Turbulence  Mountain Waves  Volcanic Ashes






- Airport Elevation : 313 ft
- IATA code : LEH


LFOH - Le Havre Octeville

CURRENT METAR :
  • 182100Z AUTO 24019KT 9999 BKN025/// OVC043/// ///CB 09/05 Q1020

EXPIRED METARs :
  • 182030Z AUTO 23017KT 9999 BKN027/// BKN033/// OVC043/// ///TCU 09/05 Q1020
  • 182000Z AUTO 23017KT 9999 BKN029 BKN037 BKN058 09/05 Q1021
  • 181930Z AUTO 23016KT 9999 BKN033 BKN039 OVC045 09/05 Q1021
  • 181900Z AUTO 23017KT 9999 BKN032 BKN042 OVC052 09/05 Q1022 TEMPO 25025G40KT 3000 SHRA BKN013 BKN025CB
  • 181830Z AUTO 24015KT 9999 FEW046 BKN058 OVC078 09/05 Q1022 TEMPO 25025G40KT 3000 SHRA BKN013 BKN025CB

TAF TAF LFOH
Valid from the 18 at 12:00 until the 19 at 12:00 UTC


181100Z 1812/1912 23015KT 9999 BKN025
TEMPO 1812/1817 23018G28KT
TEMPO 1817/1901 25025G40KT 3000 SHRA BKN013 BKN025CB
FM190100 29016KT 9999 BKN030
ATIS : +33 2 35 54 64 93



MET'MAP, your aeronautical weather chart ! - Copyright ORBIFLY December 2007 - Disclaimer

ORBIFLY MET'MAP TEAM :

Programming & Development : Alexandra Zaïnal
Concept & original design : Baudouin d'Aumeries
Assistance for programming : Marc-Olivier Méhu
Technical & hardware support : Manuel Goepfert

Contact : metmap@orbifly.com




SOURCES & CREDITS :

   NOAA